createdAt,value
2023-04-06T00:00:44.366Z,17.80
2023-04-06T00:03:14.548Z,16.90
2023-04-06T00:05:43.326Z,17.70
2023-04-06T00:08:12.178Z,17.53
2023-04-06T00:10:40.697Z,17.10
2023-04-06T00:13:10.229Z,17.33
2023-04-06T00:15:39.128Z,17.30
2023-04-06T00:18:07.829Z,16.80
2023-04-06T00:20:40.053Z,15.43
2023-04-06T00:23:08.636Z,15.40
2023-04-06T00:25:37.396Z,16.00
2023-04-06T00:28:06.162Z,14.90
2023-04-06T00:30:34.973Z,17.97
2023-04-06T00:33:03.484Z,17.00
2023-04-06T00:35:32.277Z,15.57
2023-04-06T00:38:02.412Z,15.93
2023-04-06T00:40:32.045Z,14.67
2023-04-06T00:43:00.778Z,15.20
2023-04-06T00:45:29.476Z,14.37
2023-04-06T00:47:59.125Z,15.00
2023-04-06T00:50:28.105Z,15.80
2023-04-06T00:52:57.306Z,13.03
2023-04-06T00:55:30.776Z,13.77
2023-04-06T00:58:02.222Z,14.43
2023-04-06T01:00:35.537Z,13.70
2023-04-06T01:03:06.972Z,13.27
2023-04-06T01:05:43.632Z,14.90
2023-04-06T01:08:21.056Z,17.57
2023-04-06T01:10:52.549Z,20.50
2023-04-06T01:13:27.029Z,21.93
2023-04-06T01:15:58.695Z,20.87
2023-04-06T01:18:37.297Z,17.80
2023-04-06T01:21:18.879Z,15.77
2023-04-06T01:24:09.508Z,15.77
2023-04-06T01:27:01.695Z,14.87
2023-04-06T01:29:38.031Z,14.90
2023-04-06T01:32:09.052Z,16.57
2023-04-06T01:34:45.824Z,16.37
2023-04-06T01:37:14.456Z,15.40
2023-04-06T01:39:45.011Z,17.43
2023-04-06T01:42:19.184Z,16.77
2023-04-06T01:44:49.828Z,16.10
2023-04-06T01:47:18.949Z,16.30
2023-04-06T01:49:47.948Z,16.30
2023-04-06T01:52:16.890Z,17.83
2023-04-06T01:54:54.386Z,18.20
2023-04-06T01:57:36.942Z,17.70
2023-04-06T02:00:18.279Z,17.73
2023-04-06T02:02:53.280Z,18.10
2023-04-06T02:05:27.716Z,17.53
2023-04-06T02:07:57.558Z,15.87
2023-04-06T02:10:36.077Z,16.07
2023-04-06T02:13:13.089Z,16.23
2023-04-06T02:15:46.363Z,16.03
2023-04-06T02:18:14.841Z,18.37
2023-04-06T02:20:43.488Z,19.00
2023-04-06T02:23:12.188Z,18.30
2023-04-06T02:25:42.297Z,19.57
2023-04-06T02:28:11.378Z,19.83
2023-04-06T02:30:40.198Z,18.47
2023-04-06T02:33:09.060Z,17.27
2023-04-06T02:35:47.669Z,18.63
2023-04-06T02:38:16.152Z,17.97
2023-04-06T02:40:46.102Z,19.60
2023-04-06T02:43:22.113Z,18.67
2023-04-06T02:45:54.522Z,20.43
2023-04-06T02:48:24.984Z,18.97
2023-04-06T02:50:55.071Z,19.43
2023-04-06T02:53:23.482Z,19.43
2023-04-06T02:55:53.617Z,19.10
2023-04-06T02:58:22.069Z,19.00
2023-04-06T03:00:55.057Z,19.90
2023-04-06T03:03:23.732Z,19.87
2023-04-06T03:05:53.060Z,19.67
2023-04-06T03:08:27.966Z,20.27
2023-04-06T03:10:58.136Z,22.40
2023-04-06T03:13:36.368Z,20.63
2023-04-06T03:16:05.641Z,20.03
2023-04-06T03:18:34.717Z,21.07
2023-04-06T03:21:03.237Z,20.20
2023-04-06T03:23:52.115Z,20.63
2023-04-06T03:26:23.288Z,20.17
2023-04-06T03:28:53.634Z,20.30
2023-04-06T03:31:26.388Z,21.33
2023-04-06T03:34:07.381Z,21.80
2023-04-06T03:36:38.227Z,20.17
2023-04-06T03:39:07.369Z,20.50
2023-04-06T03:41:41.232Z,21.07
2023-04-06T03:44:41.887Z,21.30
2023-04-06T03:47:10.668Z,20.33
2023-04-06T03:49:40.610Z,18.90
2023-04-06T03:52:12.594Z,20.47
2023-04-06T03:54:41.384Z,21.10
2023-04-06T03:57:14.443Z,21.40
2023-04-06T03:59:43.050Z,20.80
2023-04-06T04:02:11.702Z,21.80
2023-04-06T04:04:40.781Z,22.10
2023-04-06T04:07:09.294Z,21.30
2023-04-06T04:09:39.000Z,20.40
2023-04-06T04:12:08.316Z,20.00
2023-04-06T04:14:38.543Z,20.43
2023-04-06T04:17:07.146Z,18.57
2023-04-06T04:19:35.669Z,20.03
2023-04-06T04:22:05.546Z,22.80
2023-04-06T04:24:36.922Z,21.83
2023-04-06T04:27:05.890Z,21.30
2023-04-06T04:29:37.144Z,21.50
2023-04-06T04:32:09.909Z,21.73
2023-04-06T04:34:41.197Z,20.53
2023-04-06T04:37:12.483Z,20.77
2023-04-06T04:39:52.317Z,19.60
2023-04-06T04:42:20.959Z,20.30
2023-04-06T04:45:02.086Z,19.50
2023-04-06T04:47:36.466Z,20.80
2023-04-06T04:50:07.394Z,19.90
2023-04-06T04:52:39.650Z,19.80
2023-04-06T04:55:16.754Z,18.77
2023-04-06T04:57:48.554Z,19.43
2023-04-06T05:00:21.868Z,20.50
2023-04-06T05:02:51.461Z,19.27
2023-04-06T05:05:23.829Z,20.63
2023-04-06T05:07:53.106Z,20.60
2023-04-06T05:10:41.927Z,19.17
2023-04-06T05:13:10.883Z,19.73
2023-04-06T05:15:41.413Z,18.80
2023-04-06T05:18:22.649Z,19.10
2023-04-06T05:20:52.808Z,18.80
2023-04-06T05:23:26.338Z,20.13
2023-04-06T05:25:55.785Z,18.60
2023-04-06T05:28:25.320Z,19.77
2023-04-06T05:30:55.865Z,19.23
2023-04-06T05:33:24.656Z,19.20
2023-04-06T05:36:15.381Z,17.60
2023-04-06T05:38:46.933Z,19.97
2023-04-06T05:41:41.572Z,18.80
2023-04-06T05:44:12.176Z,18.07
2023-04-06T05:46:45.588Z,18.90
2023-04-06T05:49:17.555Z,18.03
2023-04-06T05:51:46.110Z,18.87
2023-04-06T05:54:15.000Z,17.37
2023-04-06T05:56:44.439Z,18.70
2023-04-06T05:59:15.012Z,19.97
2023-04-06T06:01:46.151Z,20.83
2023-04-06T06:04:15.512Z,18.50
2023-04-06T06:06:44.531Z,18.30
2023-04-06T06:09:17.374Z,19.80
2023-04-06T06:12:02.253Z,17.67
2023-04-06T06:14:31.870Z,17.83
2023-04-06T06:17:02.156Z,18.23
2023-04-06T06:19:31.621Z,18.53
2023-04-06T06:22:04.177Z,19.73
2023-04-06T06:24:35.246Z,20.20
2023-04-06T06:27:04.561Z,18.47
2023-04-06T06:29:35.575Z,18.40
2023-04-06T06:32:06.113Z,18.90
2023-04-06T06:34:34.952Z,18.60
2023-04-06T06:37:08.501Z,18.83
2023-04-06T06:39:39.611Z,18.30
2023-04-06T06:42:08.632Z,18.97
2023-04-06T06:45:03.550Z,18.13
2023-04-06T06:47:33.699Z,19.40
2023-04-06T06:50:03.896Z,18.13
2023-04-06T06:52:32.628Z,18.97
2023-04-06T06:55:02.298Z,17.97
2023-04-06T06:57:30.855Z,19.13
2023-04-06T07:00:00.889Z,17.80
2023-04-06T07:02:32.109Z,19.20
2023-04-06T07:05:00.665Z,19.77
2023-04-06T07:07:31.579Z,19.13
2023-04-06T07:10:01.366Z,18.87
2023-04-06T07:12:29.924Z,18.63
2023-04-06T07:14:58.452Z,19.90
2023-04-06T07:17:27.110Z,20.67
2023-04-06T07:19:57.324Z,19.43
2023-04-06T07:22:26.022Z,19.37
2023-04-06T07:24:55.161Z,17.87
2023-04-06T07:27:23.704Z,19.30
2023-04-06T07:29:52.465Z,17.93
2023-04-06T07:32:21.068Z,18.53
2023-04-06T07:34:49.827Z,18.50
2023-04-06T07:37:20.089Z,20.03
2023-04-06T07:39:51.420Z,20.20
2023-04-06T07:42:20.492Z,20.50
2023-04-06T07:44:51.071Z,19.07
2023-04-06T07:47:19.707Z,19.83
2023-04-06T07:49:48.761Z,18.97
2023-04-06T07:52:23.601Z,19.50
2023-04-06T07:54:52.353Z,20.30
2023-04-06T07:57:21.046Z,19.97
2023-04-06T07:59:49.605Z,22.27
2023-04-06T08:02:18.292Z,20.03
2023-04-06T08:04:47.676Z,19.47
2023-04-06T08:07:16.414Z,21.00
2023-04-06T08:09:46.579Z,20.87
2023-04-06T08:12:15.051Z,20.10
2023-04-06T08:14:43.563Z,20.60
2023-04-06T08:17:12.189Z,20.00
2023-04-06T08:19:40.719Z,19.80
2023-04-06T08:22:09.504Z,20.70
2023-04-06T08:24:37.990Z,20.50
2023-04-06T08:27:08.729Z,21.23
2023-04-06T08:29:37.319Z,22.57
2023-04-06T08:32:07.491Z,19.70
2023-04-06T08:34:36.418Z,21.50
2023-04-06T08:37:05.693Z,21.30
2023-04-06T08:39:34.946Z,20.87
2023-04-06T08:42:04.843Z,21.73
2023-04-06T08:44:38.904Z,21.60
2023-04-06T08:47:07.827Z,22.00
2023-04-06T08:49:39.425Z,23.00
2023-04-06T08:52:09.614Z,22.47
2023-04-06T08:54:38.569Z,21.60
2023-04-06T08:57:08.663Z,20.33
2023-04-06T08:59:39.664Z,20.97
2023-04-06T09:02:15.719Z,22.43
2023-04-06T09:04:44.639Z,22.27
2023-04-06T09:07:13.780Z,20.73
2023-04-06T09:09:48.609Z,19.50
2023-04-06T09:12:27.524Z,15.50
2023-04-06T09:14:59.479Z,15.47
2023-04-06T09:17:29.682Z,12.90
2023-04-06T09:19:59.118Z,11.83
2023-04-06T09:22:29.380Z,10.70
2023-04-06T09:24:58.089Z,9.90
2023-04-06T09:27:33.896Z,9.93
2023-04-06T09:30:15.119Z,10.97
2023-04-06T09:32:49.087Z,10.97
2023-04-06T09:35:18.277Z,10.30
2023-04-06T09:37:47.087Z,9.70
2023-04-06T09:40:18.444Z,10.13
2023-04-06T09:42:49.461Z,11.87
2023-04-06T09:45:19.632Z,10.90
2023-04-06T09:47:48.815Z,11.57
2023-04-06T09:50:18.416Z,11.63
2023-04-06T09:52:51.602Z,11.70
2023-04-06T09:55:28.543Z,12.63
2023-04-06T09:58:08.348Z,11.10
2023-04-06T10:00:51.662Z,11.47
2023-04-06T10:03:42.420Z,11.70
2023-04-06T10:06:16.125Z,11.20
2023-04-06T10:08:48.109Z,12.03
2023-04-06T10:11:17.165Z,10.80
2023-04-06T10:13:48.149Z,12.60
2023-04-06T10:16:18.945Z,11.90
2023-04-06T10:18:54.297Z,10.90
2023-04-06T10:21:28.169Z,11.77
2023-04-06T10:24:01.947Z,11.67
2023-04-06T10:26:30.642Z,11.10
2023-04-06T10:29:05.925Z,10.70
2023-04-06T10:31:41.816Z,11.53
2023-04-06T10:34:10.685Z,13.10
2023-04-06T10:36:40.182Z,9.80
2023-04-06T10:39:09.140Z,10.93
2023-04-06T10:41:42.856Z,12.17
2023-04-06T10:44:22.537Z,9.50
2023-04-06T10:47:02.958Z,11.80
2023-04-06T10:49:31.508Z,10.87
2023-04-06T10:52:00.263Z,10.40
2023-04-06T10:54:30.135Z,11.47
2023-04-06T10:56:58.745Z,11.00
2023-04-06T10:59:27.820Z,11.73
2023-04-06T11:01:57.995Z,11.97
2023-04-06T11:04:27.756Z,12.30
2023-04-06T11:06:56.646Z,10.60
2023-04-06T11:09:29.192Z,11.53
2023-04-06T11:11:58.304Z,11.80
2023-04-06T11:14:27.601Z,11.77
2023-04-06T11:16:56.509Z,11.77
2023-04-06T11:19:27.163Z,11.97
2023-04-06T11:21:56.876Z,11.67
2023-04-06T11:24:27.204Z,11.50
2023-04-06T11:26:58.589Z,11.40
2023-04-06T11:29:29.882Z,11.57
2023-04-06T11:32:02.774Z,11.47
2023-04-06T11:34:37.945Z,12.40
2023-04-06T11:37:11.103Z,13.33
2023-04-06T11:39:42.485Z,12.73
2023-04-06T11:42:11.505Z,12.90
2023-04-06T11:44:43.641Z,13.43
2023-04-06T11:47:14.041Z,12.77
2023-04-06T11:49:46.932Z,13.30
2023-04-06T11:52:20.062Z,14.20
2023-04-06T11:54:50.048Z,13.33
2023-04-06T11:57:20.423Z,13.90
2023-04-06T11:59:49.474Z,12.53
2023-04-06T12:02:18.713Z,13.27
2023-04-06T12:04:48.943Z,14.40
2023-04-06T12:07:18.173Z,15.73
2023-04-06T12:09:46.652Z,15.10
2023-04-06T12:12:15.248Z,15.40
2023-04-06T12:14:43.774Z,15.23
2023-04-06T12:17:12.234Z,15.83
2023-04-06T12:19:41.674Z,17.60
2023-04-06T12:22:11.831Z,18.20
2023-04-06T12:24:40.498Z,17.47
2023-04-06T12:27:11.987Z,17.07
2023-04-06T12:29:40.621Z,18.93
2023-04-06T12:32:09.516Z,16.90
2023-04-06T12:34:37.999Z,18.90
2023-04-06T12:37:06.568Z,19.17
2023-04-06T12:39:36.552Z,16.80
2023-04-06T12:42:06.031Z,19.20
2023-04-06T12:44:34.385Z,18.63
2023-04-06T12:47:03.473Z,20.20
2023-04-06T12:49:32.685Z,17.50
2023-04-06T12:52:01.201Z,17.67
2023-04-06T12:54:30.332Z,16.30
2023-04-06T12:57:00.162Z,17.70
2023-04-06T12:59:29.252Z,17.23
2023-04-06T13:01:57.659Z,16.70
2023-04-06T13:04:27.350Z,16.90
2023-04-06T13:06:55.875Z,17.90
2023-04-06T13:09:24.311Z,17.23
2023-04-06T13:11:53.126Z,18.33
2023-04-06T13:14:22.993Z,18.67
2023-04-06T13:16:52.215Z,18.80
2023-04-06T13:19:20.906Z,18.77
2023-04-06T13:21:49.553Z,18.60
2023-04-06T13:24:18.113Z,18.40
2023-04-06T13:26:46.599Z,17.47
2023-04-06T13:29:15.067Z,19.30
2023-04-06T13:31:45.080Z,18.80
2023-04-06T13:34:13.584Z,18.00
2023-04-06T13:36:42.880Z,21.40
2023-04-06T13:39:11.397Z,18.13
2023-04-06T13:41:41.108Z,20.97
2023-04-06T13:44:09.562Z,21.30
2023-04-06T13:46:38.221Z,20.33
2023-04-06T13:49:09.293Z,19.57
2023-04-06T13:51:37.762Z,19.47
2023-04-06T13:54:06.809Z,19.60
2023-04-06T13:56:35.297Z,20.10
2023-04-06T13:59:05.191Z,20.00
2023-04-06T14:01:33.763Z,19.40
2023-04-06T14:04:02.434Z,19.83
2023-04-06T14:06:32.394Z,18.67
2023-04-06T14:09:01.104Z,18.70
2023-04-06T14:11:29.907Z,18.40
2023-04-06T14:13:58.813Z,20.60
2023-04-06T14:16:30.340Z,20.43
2023-04-06T14:19:00.040Z,20.40
2023-04-06T14:21:28.569Z,20.07
2023-04-06T14:23:59.790Z,20.37
2023-04-06T14:26:28.764Z,21.83
2023-04-06T14:28:57.267Z,20.27
2023-04-06T14:31:25.795Z,20.77
2023-04-06T14:33:54.399Z,21.07
2023-04-06T14:36:22.763Z,19.63
2023-04-06T14:38:51.222Z,20.43
2023-04-06T14:41:24.348Z,21.50
2023-04-06T14:43:53.659Z,20.50
2023-04-06T14:46:22.601Z,19.10
2023-04-06T14:48:51.823Z,21.53
2023-04-06T14:51:20.216Z,21.87
2023-04-06T14:53:48.784Z,20.13
2023-04-06T14:56:23.417Z,21.80
2023-04-06T14:58:52.363Z,19.67
2023-04-06T15:01:21.798Z,21.23
2023-04-06T15:03:50.612Z,20.97
2023-04-06T15:06:21.764Z,22.87
2023-04-06T15:08:51.172Z,21.33
2023-04-06T15:11:19.593Z,20.20
2023-04-06T15:13:51.810Z,21.33
2023-04-06T15:16:20.528Z,19.90
2023-04-06T15:18:48.989Z,21.83
2023-04-06T15:21:18.295Z,23.20
2023-04-06T15:23:47.045Z,22.80
2023-04-06T15:26:15.508Z,23.10
2023-04-06T15:28:44.875Z,21.57
2023-04-06T15:33:50.574Z,21.50
2023-04-06T15:36:27.384Z,24.00
2023-04-06T15:38:55.780Z,23.00
2023-04-06T15:41:24.337Z,23.57
2023-04-06T15:43:52.693Z,25.60
2023-04-06T15:46:23.557Z,26.60
2023-04-06T15:48:51.875Z,23.53
2023-04-06T15:51:20.743Z,25.30
2023-04-06T15:53:49.202Z,24.30
2023-04-06T15:56:17.674Z,23.50
2023-04-06T15:58:48.050Z,22.53
2023-04-06T16:01:18.757Z,23.17
2023-04-06T16:03:49.122Z,22.37
2023-04-06T16:06:17.472Z,23.37
2023-04-06T16:08:45.971Z,20.80
2023-04-06T16:11:14.621Z,21.13
2023-04-06T16:13:45.031Z,21.47
2023-04-06T16:16:15.815Z,22.70
2023-04-06T16:18:44.311Z,21.70
2023-04-06T16:21:18.253Z,22.80
2023-04-06T16:23:48.946Z,22.50
2023-04-06T16:26:18.983Z,24.07
2023-04-06T16:28:47.551Z,23.47
2023-04-06T16:31:22.043Z,22.73
2023-04-06T16:33:51.022Z,21.67
2023-04-06T16:36:25.281Z,24.03
2023-04-06T16:38:53.739Z,23.37
2023-04-06T16:41:22.576Z,23.83
2023-04-06T16:43:51.427Z,22.80
2023-04-06T16:46:19.766Z,24.10
2023-04-06T16:48:48.592Z,22.60
2023-04-06T16:51:18.725Z,23.77
2023-04-06T16:53:48.875Z,25.43
2023-04-06T16:56:17.639Z,22.60
2023-04-06T16:58:46.460Z,25.13
2023-04-06T17:01:22.280Z,24.47
2023-04-06T17:03:51.388Z,24.77
2023-04-06T17:06:20.995Z,26.30
2023-04-06T17:08:51.305Z,28.57
2023-04-06T17:11:23.660Z,25.37
2023-04-06T17:13:56.558Z,25.57
2023-04-06T17:16:27.049Z,27.90
2023-04-06T17:18:58.385Z,27.30
2023-04-06T17:21:26.810Z,26.03
2023-04-06T17:23:56.589Z,25.53
2023-04-06T17:26:25.045Z,28.03
2023-04-06T17:28:53.467Z,28.23
2023-04-06T17:31:22.577Z,30.00
2023-04-06T17:33:51.097Z,31.80
2023-04-06T17:36:20.608Z,31.77
2023-04-06T17:38:49.803Z,30.60
2023-04-06T17:41:19.555Z,30.00
2023-04-06T17:43:48.202Z,30.40
2023-04-06T17:46:17.002Z,31.90
2023-04-06T17:48:47.075Z,31.57
2023-04-06T17:51:18.963Z,33.00
2023-04-06T17:53:47.584Z,34.50
2023-04-06T17:56:16.086Z,35.47
2023-04-06T17:58:45.905Z,35.87
2023-04-06T18:01:14.760Z,33.70
2023-04-06T18:03:43.233Z,34.10
2023-04-06T18:06:16.404Z,37.20
2023-04-06T18:08:44.961Z,37.10
2023-04-06T18:11:18.364Z,37.60
2023-04-06T18:13:48.932Z,39.30
2023-04-06T18:16:17.860Z,38.97
2023-04-06T18:18:46.321Z,41.00
2023-04-06T18:21:14.782Z,39.20
2023-04-06T18:23:43.104Z,40.60
2023-04-06T18:26:18.193Z,41.00
2023-04-06T18:28:48.644Z,45.10
2023-04-06T18:31:17.141Z,54.87
2023-04-06T18:33:46.854Z,43.70
2023-04-06T18:36:15.662Z,48.97
2023-04-06T18:38:47.826Z,50.00
2023-04-06T18:41:16.517Z,48.17
2023-04-06T18:43:45.011Z,54.20
2023-04-06T18:46:15.990Z,52.70
2023-04-06T18:48:44.926Z,50.97
2023-04-06T18:51:13.527Z,51.13
2023-04-06T18:53:42.031Z,49.17
2023-04-06T18:56:18.504Z,47.90
2023-04-06T18:58:48.495Z,48.17
2023-04-06T19:01:26.638Z,49.00
2023-04-06T19:03:56.647Z,50.20
2023-04-06T19:06:27.266Z,49.17
2023-04-06T19:08:56.048Z,50.40
2023-04-06T19:11:25.362Z,45.83
2023-04-06T19:13:55.336Z,48.87
2023-04-06T19:16:26.405Z,47.50
2023-04-06T19:18:54.812Z,44.17
2023-04-06T19:21:25.097Z,49.27
2023-04-06T19:23:55.909Z,45.40
2023-04-06T19:26:27.943Z,48.07
2023-04-06T19:28:56.441Z,40.10
2023-04-06T19:31:27.828Z,39.30
2023-04-06T19:33:56.476Z,33.50
2023-04-06T19:36:24.968Z,33.30
2023-04-06T19:38:53.434Z,26.77
2023-04-06T19:41:22.443Z,27.40
2023-04-06T19:43:51.326Z,26.70
2023-04-06T19:46:19.896Z,26.23
2023-04-06T19:48:49.766Z,24.87
2023-04-06T19:51:18.230Z,20.87
2023-04-06T19:53:46.758Z,21.00
2023-04-06T19:56:16.177Z,16.97
2023-04-06T19:58:44.710Z,16.50
2023-04-06T20:01:13.224Z,19.57
2023-04-06T20:03:41.987Z,19.30
2023-04-06T20:06:12.429Z,19.03
2023-04-06T20:08:41.351Z,20.93
2023-04-06T20:11:10.133Z,22.80
2023-04-06T20:13:39.356Z,21.20
2023-04-06T20:16:08.225Z,21.20
2023-04-06T20:18:37.157Z,22.40
2023-04-06T20:21:06.026Z,23.53
2023-04-06T20:23:37.597Z,24.17
2023-04-06T20:26:09.031Z,23.93
2023-04-06T20:28:39.582Z,24.47
2023-04-06T20:31:09.680Z,24.83
2023-04-06T20:33:38.480Z,24.97
2023-04-06T20:36:07.145Z,22.87
2023-04-06T20:38:37.088Z,21.30
2023-04-06T20:41:06.439Z,22.00
2023-04-06T20:43:35.628Z,20.30
2023-04-06T20:46:05.524Z,20.07
2023-04-06T20:48:36.281Z,20.60
2023-04-06T20:51:05.672Z,19.30
2023-04-06T20:53:34.103Z,18.40
2023-04-06T20:56:04.389Z,18.27
2023-04-06T20:58:32.777Z,17.83
2023-04-06T21:01:01.187Z,17.67
2023-04-06T21:03:29.747Z,18.30
2023-04-06T21:05:59.961Z,19.53
2023-04-06T21:08:28.380Z,19.60
2023-04-06T21:10:56.947Z,19.70
2023-04-06T21:13:26.628Z,18.40
2023-04-06T21:15:56.235Z,21.47
2023-04-06T21:18:25.092Z,19.53
2023-04-06T21:20:53.620Z,19.10
2023-04-06T21:23:23.099Z,17.50
2023-04-06T21:25:52.005Z,18.50
2023-04-06T21:28:20.535Z,15.70
2023-04-06T21:30:50.346Z,14.27
2023-04-06T21:33:18.744Z,14.33
2023-04-06T21:35:47.123Z,14.40
2023-04-06T21:38:15.566Z,13.07
2023-04-06T21:40:43.919Z,11.73
2023-04-06T21:43:12.519Z,11.40
2023-04-06T21:45:40.865Z,10.90
2023-04-06T21:48:10.607Z,10.53
2023-04-06T21:50:41.184Z,10.10
2023-04-06T21:53:09.964Z,10.20
2023-04-06T21:55:44.873Z,10.67
2023-04-06T21:58:14.011Z,9.33
2023-04-06T22:00:43.003Z,10.20
2023-04-06T22:03:12.894Z,8.33
2023-04-06T22:05:41.622Z,8.60
2023-04-06T22:08:15.155Z,8.40
2023-04-06T22:10:46.584Z,7.93
2023-04-06T22:13:15.450Z,8.90
2023-04-06T22:15:43.770Z,8.13
2023-04-06T22:18:13.509Z,8.00
2023-04-06T22:20:41.848Z,8.73
2023-04-06T22:23:10.984Z,8.13
2023-04-06T22:25:39.849Z,9.70
2023-04-06T22:28:08.181Z,10.00
2023-04-06T22:30:36.523Z,10.10
2023-04-06T22:33:05.022Z,11.80
2023-04-06T22:35:34.800Z,11.43
2023-04-06T22:38:03.103Z,12.27
2023-04-06T22:40:31.496Z,13.93
2023-04-06T22:42:59.934Z,12.83
2023-04-06T22:45:28.358Z,12.13
2023-04-06T22:47:56.902Z,13.90
2023-04-06T22:50:25.952Z,12.70
2023-04-06T22:52:56.369Z,14.07
2023-04-06T22:55:25.011Z,12.17
2023-04-06T22:57:53.444Z,12.63
2023-04-06T23:00:21.969Z,12.77
2023-04-06T23:02:50.624Z,13.03
2023-04-06T23:05:19.120Z,11.90
2023-04-06T23:07:47.597Z,13.30
2023-04-06T23:10:17.501Z,14.23
2023-04-06T23:12:46.074Z,15.43
2023-04-06T23:15:14.608Z,14.40
2023-04-06T23:17:42.951Z,16.30
2023-04-06T23:20:11.491Z,15.93
2023-04-06T23:22:39.839Z,16.70
2023-04-06T23:25:10.109Z,16.67
2023-04-06T23:27:39.764Z,17.63
2023-04-06T23:30:09.792Z,18.30
2023-04-06T23:32:38.199Z,18.33
2023-04-06T23:35:07.923Z,19.17
2023-04-06T23:37:36.334Z,18.60
2023-04-06T23:40:05.109Z,19.37
2023-04-06T23:42:33.409Z,18.00
2023-04-06T23:45:04.775Z,17.77
2023-04-06T23:47:33.175Z,21.23
2023-04-06T23:50:01.711Z,20.20
2023-04-06T23:52:30.703Z,21.37
2023-04-06T23:54:59.051Z,22.70
2023-04-06T23:57:27.627Z,20.20
2023-04-06T23:59:57.247Z,23.47
